Time;durP1;ratioP1;P1;durP2;ratioP2;P2;SDS_P1;SDS_P2;PMS_P1;PMS_P2;Temp;Humidity;BMP_temperature;BMP_pressure;BME280_temperature;BME280_humidity;BME280_pressure;Samples;Min_cycle;Max_cycle;Signal;HPM_P1;HPM_P2
2022/02/18 00:00:25;;;;;;;5.45;2.90;;;;;;;;;;1758446;79;21532;-66
2022/02/18 00:02:52;;;;;;;7.58;3.00;;;;;;;;;;1781669;79;20982;-67
2022/02/18 00:05:17;;;;;;;6.08;2.90;;;;;;;;;;1781710;79;21451;-66
2022/02/18 00:07:45;;;;;;;7.47;2.92;;;;;;;;;;1782277;79;21013;-67
2022/02/18 00:10:11;;;;;;;4.75;3.02;;;;;;;;;;1782278;79;21537;-66
2022/02/18 00:12:37;;;;;;;3.47;2.08;;;;;;;;;;1794269;79;21065;-66
2022/02/18 00:15:05;;;;;;;4.12;2.20;;;;;;;;;;1795320;79;21025;-66
2022/02/18 00:17:31;;;;;;;3.87;2.52;;;;;;;;;;1795189;79;21088;-66
2022/02/18 00:19:57;;;;;;;3.98;2.12;;;;;;;;;;1785549;79;20982;-67
2022/02/18 00:22:24;;;;;;;4.30;2.15;;;;;;;;;;1787105;79;21032;-66
2022/02/18 00:24:49;;;;;;;3.58;2.10;;;;;;;;;;1795045;79;20931;-66
2022/02/18 00:27:16;;;;;;;2.98;2.10;;;;;;;;;;1793611;79;21094;-66
2022/02/18 00:29:42;;;;;;;5.83;2.20;;;;;;;;;;1789875;79;20978;-66
2022/02/18 00:32:08;;;;;;;4.03;2.52;;;;;;;;;;1756966;79;21094;-66
2022/02/18 00:34:35;;;;;;;4.87;2.30;;;;;;;;;;1788480;79;20993;-67
2022/02/18 00:37:03;;;;;;;2.70;2.00;;;;;;;;;;1781179;79;20938;-65
2022/02/18 00:39:31;;;;;;;4.70;2.50;;;;;;;;;;1756880;79;21138;-66
2022/02/18 00:41:57;;;;;;;6.22;2.80;;;;;;;;;;1778074;79;21004;-66
2022/02/18 00:44:24;;;;;;;4.33;2.40;;;;;;;;;;1752798;80;21489;-65
2022/02/18 00:46:50;;;;;;;4.33;2.22;;;;;;;;;;1792966;79;20986;-66
2022/02/18 00:49:17;;;;;;;5.25;2.40;;;;;;;;;;1795891;79;20985;-66
2022/02/18 00:51:43;;;;;;;4.20;2.20;;;;;;;;;;1737043;81;21012;-66
2022/02/18 00:54:11;;;;;;;5.62;2.67;;;;;;;;;;1763442;80;21444;-66
2022/02/18 00:56:41;;;;;;;6.78;2.60;;;;;;;;;;1763219;81;21008;-66
2022/02/18 00:59:06;;;;;;;6.20;2.77;;;;;;;;;;1760683;81;21103;-66
2022/02/18 01:01:32;;;;;;;5.65;2.72;;;;;;;;;;1761363;81;21039;-66
2022/02/18 01:03:58;;;;;;;6.92;2.72;;;;;;;;;;1761370;81;20961;-67
2022/02/18 01:06:24;;;;;;;4.15;2.47;;;;;;;;;;1762861;81;21009;-67
2022/02/18 01:08:50;;;;;;;5.70;2.52;;;;;;;;;;1731791;81;21530;-66
2022/02/18 01:11:17;;;;;;;4.17;2.75;;;;;;;;;;1763311;81;21440;-66
2022/02/18 01:13:44;;;;;;;3.12;2.08;;;;;;;;;;1760453;81;20973;-67
2022/02/18 01:16:10;;;;;;;4.87;2.40;;;;;;;;;;1762426;81;21025;-67
2022/02/18 01:18:35;;;;;;;6.37;2.90;;;;;;;;;;1734470;81;21074;-66
2022/02/18 01:21:03;;;;;;;4.80;2.75;;;;;;;;;;1728176;81;20996;-66
2022/02/18 01:23:30;;;;;;;9.90;3.42;;;;;;;;;;1759561;81;21008;-66
2022/02/18 01:25:56;;;;;;;6.67;2.85;;;;;;;;;;1763464;81;20992;-65
2022/02/18 01:28:21;;;;;;;12.45;4.80;;;;;;;;;;1728967;81;21084;-66
2022/02/18 01:30:47;;;;;;;7.65;3.37;;;;;;;;;;1733671;81;20969;-65
2022/02/18 01:33:14;;;;;;;5.65;2.75;;;;;;;;;;1762752;81;21578;-66
2022/02/18 01:35:40;;;;;;;8.48;3.33;;;;;;;;;;1761529;81;21068;-65
2022/02/18 01:38:06;;;;;;;8.45;3.75;;;;;;;;;;1761299;81;21035;-66
2022/02/18 01:40:33;;;;;;;4.85;2.60;;;;;;;;;;1762863;81;21564;-66
2022/02/18 01:43:00;;;;;;;5.53;2.58;;;;;;;;;;1758077;81;21472;-66
2022/02/18 01:45:26;;;;;;;7.22;3.02;;;;;;;;;;1762645;81;21020;-66
2022/02/18 01:47:53;;;;;;;4.67;2.45;;;;;;;;;;1762768;81;21020;-67
2022/02/18 01:50:19;;;;;;;7.35;3.50;;;;;;;;;;1759574;81;21112;-66
2022/02/18 01:52:49;;;;;;;5.47;2.40;;;;;;;;;;1777146;80;21014;-66
2022/02/18 01:55:15;;;;;;;5.47;2.87;;;;;;;;;;1783058;79;21058;-67
2022/02/18 01:57:45;;;;;;;4.45;2.70;;;;;;;;;;1781178;80;21021;-66
2022/02/18 02:03:20;;;;;;;4.25;2.55;;;;;;;;;;1722982;80;74878;-67
2022/02/18 02:05:46;;;;;;;3.55;2.17;;;;;;;;;;1706123;82;21029;-67
2022/02/18 02:08:13;;;;;;;4.62;2.30;;;;;;;;;;1706223;83;21515;-67
2022/02/18 02:10:44;;;;;;;2.17;1.55;;;;;;;;;;1708003;84;21034;-67
2022/02/18 02:13:14;;;;;;;3.87;2.22;;;;;;;;;;1691012;84;21061;-67
2022/02/18 02:15:40;;;;;;;3.00;1.98;;;;;;;;;;1682198;84;21078;-67
2022/02/18 02:18:11;;;;;;;4.58;2.17;;;;;;;;;;1687885;84;21036;-67
2022/02/18 02:20:37;;;;;;;3.30;2.52;;;;;;;;;;1698769;84;21132;-66
2022/02/18 02:23:02;;;;;;;3.40;2.05;;;;;;;;;;1692492;84;21067;-67
2022/02/18 02:25:34;;;;;;;2.85;1.82;;;;;;;;;;1686487;84;21038;-66
2022/02/18 02:28:01;;;;;;;3.27;2.40;;;;;;;;;;1685640;84;21010;-67
2022/02/18 02:30:27;;;;;;;3.58;2.35;;;;;;;;;;1658146;84;21079;-67
2022/02/18 02:32:55;;;;;;;4.45;2.33;;;;;;;;;;1660118;84;21011;-67
2022/02/18 02:35:23;;;;;;;3.40;1.67;;;;;;;;;;1658860;84;21004;-67
2022/02/18 02:37:50;;;;;;;2.25;1.40;;;;;;;;;;1687092;84;21038;-67
2022/02/18 02:40:19;;;;;;;1.17;1.10;;;;;;;;;;1668301;83;21024;-66
2022/02/18 02:42:46;;;;;;;1.30;1.20;;;;;;;;;;1687897;84;20985;-67
2022/02/18 02:45:13;;;;;;;1.57;1.20;;;;;;;;;;1659059;84;21042;-67
2022/02/18 02:47:39;;;;;;;2.65;1.87;;;;;;;;;;1662794;84;21685;-68
2022/02/18 02:50:10;;;;;;;1.65;1.47;;;;;;;;;;1686828;84;21054;-67
2022/02/18 02:52:36;;;;;;;1.60;1.50;;;;;;;;;;1665381;84;21100;-66
2022/02/18 02:55:07;;;;;;;2.90;1.55;;;;;;;;;;1662308;84;21068;-67
2022/02/18 02:57:33;;;;;;;1.65;1.55;;;;;;;;;;1658275;84;21070;-66
2022/02/18 02:59:59;;;;;;;3.20;1.60;;;;;;;;;;1662896;84;21004;-67
2022/02/18 03:02:27;;;;;;;1.50;1.40;;;;;;;;;;1660278;83;21544;-67
2022/02/18 03:04:53;;;;;;;1.45;1.25;;;;;;;;;;1705891;83;21078;-67
2022/02/18 03:07:19;;;;;;;1.98;1.40;;;;;;;;;;1733753;82;21546;-67
2022/02/18 03:09:48;;;;;;;1.52;1.40;;;;;;;;;;1727793;82;21063;-67
2022/02/18 03:12:16;;;;;;;1.60;1.50;;;;;;;;;;1731426;82;20998;-68
2022/02/18 03:14:45;;;;;;;1.40;1.30;;;;;;;;;;1726612;82;21018;-67
2022/02/18 03:17:13;;;;;;;2.67;1.70;;;;;;;;;;1733343;82;21515;-67
2022/02/18 03:19:40;;;;;;;1.72;1.30;;;;;;;;;;1731784;82;21075;-67
2022/02/18 03:22:06;;;;;;;2.08;1.60;;;;;;;;;;1733581;82;21015;-67
2022/02/18 03:24:34;;;;;;;1.45;1.35;;;;;;;;;;1731728;82;21056;-67
2022/02/18 03:27:00;;;;;;;1.25;1.20;;;;;;;;;;1706750;82;21060;-68
2022/02/18 03:29:28;;;;;;;1.70;1.60;;;;;;;;;;1733016;82;21062;-67
2022/02/18 03:31:56;;;;;;;2.22;1.57;;;;;;;;;;1732582;82;21062;-67
2022/02/18 03:34:22;;;;;;;3.08;1.40;;;;;;;;;;1732993;82;21545;-67
2022/02/18 03:36:48;;;;;;;2.25;1.70;;;;;;;;;;1723749;82;20996;-67
2022/02/18 03:39:14;;;;;;;1.50;1.40;;;;;;;;;;1705636;82;21015;-67
2022/02/18 03:41:41;;;;;;;1.45;1.35;;;;;;;;;;1732531;82;21012;-67
2022/02/18 03:44:08;;;;;;;1.60;1.50;;;;;;;;;;1733170;82;21030;-67
2022/02/18 03:46:36;;;;;;;3.27;1.55;;;;;;;;;;1733654;82;21069;-67
2022/02/18 03:49:02;;;;;;;1.60;1.50;;;;;;;;;;1731559;82;21314;-68
2022/02/18 03:51:31;;;;;;;1.52;1.30;;;;;;;;;;1708701;82;20984;-67
2022/02/18 03:53:58;;;;;;;1.50;1.40;;;;;;;;;;1731368;82;21493;-67
2022/02/18 03:56:24;;;;;;;1.87;1.40;;;;;;;;;;1726392;82;21010;-67
2022/02/18 03:58:52;;;;;;;1.52;1.42;;;;;;;;;;1732370;82;21043;-67
2022/02/18 04:01:18;;;;;;;2.33;1.50;;;;;;;;;;1708980;82;21552;-68
2022/02/18 04:03:44;;;;;;;1.42;1.32;;;;;;;;;;1720684;80;21106;-68
2022/02/18 04:06:28;;;;;;;1.82;1.50;;;;;;;;;;1750495;81;21069;-68
2022/02/18 04:09:04;;;;;;;1.55;1.17;;;;;;;;;;1754134;80;21034;-67
2022/02/18 04:11:38;;;;;;;2.52;1.55;;;;;;;;;;1754811;81;21169;-67
2022/02/18 04:14:07;;;;;;;1.60;1.50;;;;;;;;;;1748150;81;21570;-68
2022/02/18 04:16:33;;;;;;;1.40;1.30;;;;;;;;;;1754966;81;21885;-67
2022/02/18 04:19:01;;;;;;;1.40;1.30;;;;;;;;;;1754124;81;21027;-66
2022/02/18 04:21:29;;;;;;;3.02;1.57;;;;;;;;;;1754004;81;20979;-67
2022/02/18 04:23:57;;;;;;;1.50;1.40;;;;;;;;;;1751765;80;21081;-67
2022/02/18 04:26:23;;;;;;;1.60;1.50;;;;;;;;;;1753357;81;21308;-67
2022/02/18 04:28:50;;;;;;;1.27;1.17;;;;;;;;;;1755914;80;20999;-67
2022/02/18 04:31:16;;;;;;;1.35;1.25;;;;;;;;;;1753424;80;21023;-67
2022/02/18 04:33:43;;;;;;;1.90;1.60;;;;;;;;;;1740134;81;21016;-67
2022/02/18 04:36:11;;;;;;;2.70;1.37;;;;;;;;;;1766782;81;20972;-67
2022/02/18 04:38:38;;;;;;;4.75;2.08;;;;;;;;;;1737914;81;21339;-67
2022/02/18 04:41:04;;;;;;;2.80;1.72;;;;;;;;;;1720037;81;21043;-67
2022/02/18 04:43:30;;;;;;;1.92;1.60;;;;;;;;;;1716241;82;21006;-67
2022/02/18 04:45:56;;;;;;;4.15;2.12;;;;;;;;;;1705581;84;21015;-67
2022/02/18 04:48:22;;;;;;;2.90;1.70;;;;;;;;;;1706201;84;21547;-67
2022/02/18 04:50:48;;;;;;;3.20;1.98;;;;;;;;;;1692655;84;21130;-66
2022/02/18 04:53:14;;;;;;;3.58;1.62;;;;;;;;;;1723790;82;21043;-67
2022/02/18 04:55:43;;;;;;;4.33;2.50;;;;;;;;;;1710723;84;21028;-67
2022/02/18 04:58:10;;;;;;;4.67;2.47;;;;;;;;;;1749976;81;21039;-66
2022/02/18 05:00:36;;;;;;;9.00;3.08;;;;;;;;;;1754039;81;21031;-67
2022/02/18 05:03:02;;;;;;;4.10;2.42;;;;;;;;;;1754489;81;21049;-67
2022/02/18 05:05:28;;;;;;;5.70;3.02;;;;;;;;;;1759956;80;21105;-67
2022/02/18 05:07:54;;;;;;;5.42;2.25;;;;;;;;;;1768973;80;21025;-67
2022/02/18 05:10:20;;;;;;;6.30;2.87;;;;;;;;;;1740537;80;21109;-67
2022/02/18 05:12:47;;;;;;;6.17;2.85;;;;;;;;;;1759363;80;21093;-66
2022/02/18 05:15:14;;;;;;;4.15;2.22;;;;;;;;;;1739013;80;21612;-67
2022/02/18 05:17:40;;;;;;;6.42;2.50;;;;;;;;;;1739958;80;21018;-67
2022/02/18 05:20:06;;;;;;;4.35;2.55;;;;;;;;;;1765701;80;21655;-67
2022/02/18 05:22:33;;;;;;;5.62;3.00;;;;;;;;;;1763614;80;21014;-67
2022/02/18 05:25:00;;;;;;;5.90;3.60;;;;;;;;;;1766845;80;21643;-67
2022/02/18 05:27:26;;;;;;;4.72;3.12;;;;;;;;;;1767006;80;21037;-67
2022/02/18 05:29:52;;;;;;;26.80;12.20;;;;;;;;;;1745011;80;21005;-68
2022/02/18 05:32:18;;;;;;;6.95;3.05;;;;;;;;;;1740546;80;21025;-68
2022/02/18 05:34:44;;;;;;;4.10;2.60;;;;;;;;;;1733829;80;22327;-68
2022/02/18 05:37:11;;;;;;;5.80;2.47;;;;;;;;;;1757142;80;21100;-67
2022/02/18 05:39:38;;;;;;;5.22;2.40;;;;;;;;;;1738004;80;21619;-67
2022/02/18 05:42:04;;;;;;;5.50;2.83;;;;;;;;;;1717438;80;21069;-67
2022/02/18 05:44:34;;;;;;;5.72;2.60;;;;;;;;;;1765398;80;21060;-68
2022/02/18 05:47:00;;;;;;;4.83;2.65;;;;;;;;;;1735948;82;21086;-67
2022/02/18 05:49:26;;;;;;;4.87;2.10;;;;;;;;;;1695722;83;21561;-68
2022/02/18 05:51:54;;;;;;;4.25;2.58;;;;;;;;;;1708453;83;21049;-69
2022/02/18 05:54:20;;;;;;;3.65;2.05;;;;;;;;;;1704900;83;21008;-68
2022/02/18 05:56:48;;;;;;;5.30;2.90;;;;;;;;;;1709066;83;21110;-68
2022/02/18 05:59:14;;;;;;;7.67;3.40;;;;;;;;;;1701044;83;21051;-68
2022/02/18 06:01:44;;;;;;;7.58;3.55;;;;;;;;;;1694110;83;21052;-67
2022/02/18 06:04:11;;;;;;;7.12;3.62;;;;;;;;;;1677652;83;21059;-67
2022/02/18 06:06:40;;;;;;;8.13;3.42;;;;;;;;;;1692055;84;21020;-68
2022/02/18 06:09:07;;;;;;;8.40;3.60;;;;;;;;;;1689991;84;21008;-69
2022/02/18 06:11:35;;;;;;;5.15;3.08;;;;;;;;;;1716898;82;21511;-68
2022/02/18 06:14:02;;;;;;;6.28;3.10;;;;;;;;;;1706493;84;21041;-68
2022/02/18 06:16:28;;;;;;;3.90;2.17;;;;;;;;;;1698115;84;21010;-67
2022/02/18 06:18:54;;;;;;;4.62;2.33;;;;;;;;;;1679791;84;21125;-67
2022/02/18 06:21:20;;;;;;;3.62;2.12;;;;;;;;;;1705979;84;21061;-67
2022/02/18 06:23:48;;;;;;;2.98;1.87;;;;;;;;;;1706198;84;21008;-67
2022/02/18 06:26:18;;;;;;;3.40;2.02;;;;;;;;;;1753884;81;21020;-67
2022/02/18 06:28:44;;;;;;;4.95;2.10;;;;;;;;;;1752747;81;21558;-67
2022/02/18 06:31:10;;;;;;;3.67;2.10;;;;;;;;;;1754188;80;21021;-67
2022/02/18 06:33:36;;;;;;;4.58;2.30;;;;;;;;;;1756176;81;21017;-66
2022/02/18 06:36:02;;;;;;;6.60;2.30;;;;;;;;;;1752181;81;21062;-68
2022/02/18 06:38:30;;;;;;;2.85;1.92;;;;;;;;;;1725425;81;21074;-66
2022/02/18 06:40:58;;;;;;;4.53;2.40;;;;;;;;;;1727001;81;21018;-67
2022/02/18 06:43:24;;;;;;;3.50;2.10;;;;;;;;;;1725411;81;21017;-67
2022/02/18 06:45:50;;;;;;;4.28;2.42;;;;;;;;;;1752538;80;21126;-67
2022/02/18 06:48:17;;;;;;;2.87;1.92;;;;;;;;;;1750283;81;21063;-67
2022/02/18 06:50:43;;;;;;;3.92;2.33;;;;;;;;;;1755855;81;20997;-68
2022/02/18 06:53:10;;;;;;;3.65;2.10;;;;;;;;;;1755172;80;21058;-68
2022/02/18 06:55:36;;;;;;;6.83;2.45;;;;;;;;;;1727454;81;21033;-68
2022/02/18 06:58:03;;;;;;;2.95;2.12;;;;;;;;;;1753122;80;21022;-68
2022/02/18 07:00:29;;;;;;;3.30;2.10;;;;;;;;;;1754500;81;21066;-68
2022/02/18 07:02:55;;;;;;;3.62;1.92;;;;;;;;;;1750209;80;21087;-68
2022/02/18 07:05:23;;;;;;;3.90;2.10;;;;;;;;;;1703330;82;20989;-70
2022/02/18 07:07:49;;;;;;;3.55;1.98;;;;;;;;;;1703909;83;21039;-68
2022/02/18 07:10:15;;;;;;;2.77;1.80;;;;;;;;;;1737068;82;21060;-69
2022/02/18 07:12:41;;;;;;;4.62;2.50;;;;;;;;;;1726513;82;21672;-68
2022/02/18 07:15:08;;;;;;;3.77;2.10;;;;;;;;;;1703670;82;21039;-69
2022/02/18 07:17:34;;;;;;;3.85;2.10;;;;;;;;;;1738649;80;21532;-70
2022/02/18 07:20:02;;;;;;;4.30;2.60;;;;;;;;;;1740013;80;21061;-69
2022/02/18 07:22:29;;;;;;;4.03;2.33;;;;;;;;;;1734396;80;21540;-68
2022/02/18 07:24:54;;;;;;;4.45;2.52;;;;;;;;;;1741872;80;21046;-68
2022/02/18 07:27:22;;;;;;;5.20;2.75;;;;;;;;;;1728592;81;21683;-68
2022/02/18 07:29:49;;;;;;;7.17;3.15;;;;;;;;;;1722977;82;21037;-69
2022/02/18 07:32:15;;;;;;;5.78;2.58;;;;;;;;;;1745705;80;21032;-69
2022/02/18 07:34:41;;;;;;;4.00;2.30;;;;;;;;;;1705749;82;21088;-68
2022/02/18 07:37:07;;;;;;;4.87;2.60;;;;;;;;;;1664931;84;20996;-69
2022/02/18 07:39:33;;;;;;;5.55;3.10;;;;;;;;;;1710357;83;21583;-68
2022/02/18 07:41:59;;;;;;;6.55;3.25;;;;;;;;;;1739200;82;21479;-68
2022/02/18 07:44:27;;;;;;;4.05;2.45;;;;;;;;;;1680129;84;21035;-68
2022/02/18 07:46:52;;;;;;;4.03;2.87;;;;;;;;;;1705019;82;21046;-68
2022/02/18 07:49:19;;;;;;;4.17;2.47;;;;;;;;;;1718255;82;20991;-68
2022/02/18 07:51:45;;;;;;;3.98;2.47;;;;;;;;;;1766493;80;21002;-68
2022/02/18 07:54:11;;;;;;;6.20;2.58;;;;;;;;;;1769489;80;21022;-65
2022/02/18 07:56:39;;;;;;;6.30;3.00;;;;;;;;;;1759280;80;21497;-67
2022/02/18 07:59:06;;;;;;;3.37;2.25;;;;;;;;;;1767233;80;21048;-67
2022/02/18 08:01:34;;;;;;;4.33;2.37;;;;;;;;;;1768363;80;21180;-67
2022/02/18 08:04:00;;;;;;;3.85;2.60;;;;;;;;;;1736735;80;22094;-68
2022/02/18 08:08:42;;;;;;;5.53;2.67;;;;;;;;;;1801240;79;22752;-66
2022/02/18 08:11:12;;;;;;;5.80;2.72;;;;;;;;;;1743551;81;21057;-68
2022/02/18 08:13:38;;;;;;;4.75;2.55;;;;;;;;;;1761241;81;21055;-67
2022/02/18 08:16:05;;;;;;;5.53;2.60;;;;;;;;;;1760885;81;21452;-67
2022/02/18 08:18:31;;;;;;;5.65;2.47;;;;;;;;;;1761129;81;21085;-67
2022/02/18 08:20:58;;;;;;;6.33;2.35;;;;;;;;;;1761528;81;21038;-67
2022/02/18 08:23:24;;;;;;;5.58;2.60;;;;;;;;;;1745698;81;21064;-67
2022/02/18 08:25:50;;;;;;;8.60;3.35;;;;;;;;;;1761680;81;21106;-67
2022/02/18 08:28:20;;;;;;;6.15;2.58;;;;;;;;;;1744963;81;21094;-68
2022/02/18 08:30:44;;;;;;;3.77;2.45;;;;;;;;;;1761129;81;21037;-68
2022/02/18 08:33:11;;;;;;;4.42;2.60;;;;;;;;;;1760326;81;20980;-68
2022/02/18 08:35:37;;;;;;;4.53;2.42;;;;;;;;;;1760649;81;21523;-67
2022/02/18 08:38:04;;;;;;;4.97;2.25;;;;;;;;;;1760588;81;21513;-66
2022/02/18 08:40:30;;;;;;;5.17;2.83;;;;;;;;;;1761432;81;21001;-69
2022/02/18 08:42:58;;;;;;;4.12;2.10;;;;;;;;;;1760652;81;21026;-67
2022/02/18 08:45:24;;;;;;;3.83;2.08;;;;;;;;;;1744462;81;20978;-68
2022/02/18 08:47:50;;;;;;;5.85;1.87;;;;;;;;;;1761617;81;21060;-66
2022/02/18 08:50:16;;;;;;;5.10;2.12;;;;;;;;;;1761735;81;21594;-68
2022/02/18 08:52:45;;;;;;;4.62;2.52;;;;;;;;;;1760619;81;21042;-67
2022/02/18 08:55:12;;;;;;;5.03;3.10;;;;;;;;;;1744413;81;21016;-67
2022/02/18 08:57:39;;;;;;;3.40;2.40;;;;;;;;;;1761430;81;21036;-68
2022/02/18 09:00:06;;;;;;;4.12;2.37;;;;;;;;;;1763249;80;21456;-67
2022/02/18 09:02:35;;;;;;;3.80;2.40;;;;;;;;;;1745681;81;21032;-67
2022/02/18 09:05:03;;;;;;;4.50;2.00;;;;;;;;;;1738491;82;21472;-67
2022/02/18 09:07:32;;;;;;;4.05;2.45;;;;;;;;;;1732060;82;21488;-67
2022/02/18 09:09:59;;;;;;;4.62;2.35;;;;;;;;;;1726870;82;21563;-67
2022/02/18 09:12:25;;;;;;;5.42;3.00;;;;;;;;;;1722952;81;21537;-67
2022/02/18 09:14:53;;;;;;;6.95;2.67;;;;;;;;;;1725593;82;20986;-68
2022/02/18 09:17:21;;;;;;;3.67;2.27;;;;;;;;;;1726219;82;21025;-67
2022/02/18 09:19:48;;;;;;;4.78;2.37;;;;;;;;;;1725807;82;21472;-67
2022/02/18 09:22:15;;;;;;;4.67;2.33;;;;;;;;;;1724991;82;21537;-67
2022/02/18 09:24:41;;;;;;;6.03;2.67;;;;;;;;;;1725816;82;21021;-67
2022/02/18 09:27:07;;;;;;;4.47;2.30;;;;;;;;;;1722954;82;21029;-67
2022/02/18 09:29:33;;;;;;;3.95;2.15;;;;;;;;;;1724304;82;21549;-66
2022/02/18 09:32:03;;;;;;;4.72;2.27;;;;;;;;;;1723193;82;20981;-68
2022/02/18 09:34:28;;;;;;;5.40;2.35;;;;;;;;;;1726270;82;21022;-67
2022/02/18 09:36:54;;;;;;;4.12;2.37;;;;;;;;;;1724333;82;21060;-67
2022/02/18 09:39:21;;;;;;;5.45;2.70;;;;;;;;;;1724867;82;21069;-68
2022/02/18 09:41:47;;;;;;;3.92;2.70;;;;;;;;;;1727957;82;21495;-66
2022/02/18 09:44:14;;;;;;;4.42;2.35;;;;;;;;;;1716107;82;21084;-68
2022/02/18 09:46:40;;;;;;;3.20;2.10;;;;;;;;;;1715215;82;20997;-66
2022/02/18 09:49:06;;;;;;;4.72;2.25;;;;;;;;;;1735288;82;21540;-67
2022/02/18 09:51:33;;;;;;;3.52;1.90;;;;;;;;;;1730085;82;21017;-67
2022/02/18 09:53:58;;;;;;;4.37;2.62;;;;;;;;;;1729677;82;21520;-67
2022/02/18 09:56:26;;;;;;;5.92;2.65;;;;;;;;;;1730124;82;21346;-67
2022/02/18 09:58:52;;;;;;;5.17;2.95;;;;;;;;;;1724161;82;21009;-69
2022/02/18 10:01:18;;;;;;;5.35;3.02;;;;;;;;;;1726351;82;21080;-67
2022/02/18 10:03:44;;;;;;;4.03;2.40;;;;;;;;;;1723141;82;21513;-67
2022/02/18 10:06:10;;;;;;;3.72;2.40;;;;;;;;;;1725476;82;20990;-67
2022/02/18 10:08:49;;;;;;;2.75;1.87;;;;;;;;;;1734161;82;21020;-67
2022/02/18 10:11:17;;;;;;;4.33;2.30;;;;;;;;;;1736215;82;21544;-67
2022/02/18 10:13:45;;;;;;;3.58;2.42;;;;;;;;;;1737156;82;22339;-67
2022/02/18 10:16:18;;;;;;;3.87;2.10;;;;;;;;;;1737479;82;21460;-70
2022/02/18 10:18:51;;;;;;;5.80;2.10;;;;;;;;;;1737407;82;21008;-67
2022/02/18 10:21:18;;;;;;;2.95;2.02;;;;;;;;;;1711134;82;20954;-68
2022/02/18 10:23:45;;;;;;;4.25;1.90;;;;;;;;;;1712763;82;21068;-69
2022/02/18 10:26:11;;;;;;;3.08;1.75;;;;;;;;;;1709373;82;20985;-70
2022/02/18 10:28:36;;;;;;;2.15;1.55;;;;;;;;;;1738502;82;20993;-68
2022/02/18 10:31:04;;;;;;;3.90;2.30;;;;;;;;;;1739752;82;21013;-67
2022/02/18 10:33:30;;;;;;;4.10;2.40;;;;;;;;;;1736654;82;21140;-66
2022/02/18 10:36:01;;;;;;;4.78;2.22;;;;;;;;;;1737974;81;21001;-68
2022/02/18 10:38:32;;;;;;;2.45;1.75;;;;;;;;;;1740347;82;21025;-66
2022/02/18 10:40:59;;;;;;;3.55;2.05;;;;;;;;;;1739082;82;21029;-67
2022/02/18 10:43:26;;;;;;;3.65;2.20;;;;;;;;;;1737180;81;20949;-68
2022/02/18 10:46:04;;;;;;;4.95;2.42;;;;;;;;;;1740633;82;21009;-67
2022/02/18 10:48:34;;;;;;;3.87;2.27;;;;;;;;;;1740714;82;21484;-67
2022/02/18 10:51:04;;;;;;;3.08;1.87;;;;;;;;;;1711871;82;21611;-69
2022/02/18 10:53:36;;;;;;;3.30;1.90;;;;;;;;;;1737717;82;21519;-68
2022/02/18 10:56:04;;;;;;;3.10;2.02;;;;;;;;;;1737275;82;21520;-67
2022/02/18 10:58:40;;;;;;;3.72;2.42;;;;;;;;;;1736614;82;21083;-66
2022/02/18 11:01:14;;;;;;;3.27;2.10;;;;;;;;;;1736795;82;21135;-66
2022/02/18 11:03:42;;;;;;;3.25;1.70;;;;;;;;;;1737867;81;21039;-66
2022/02/18 11:06:15;;;;;;;3.05;2.00;;;;;;;;;;1739758;82;21025;-67
2022/02/18 11:08:43;;;;;;;3.58;2.10;;;;;;;;;;1739778;81;21016;-66
2022/02/18 11:11:10;;;;;;;2.98;1.82;;;;;;;;;;1736803;82;21550;-66
2022/02/18 11:13:37;;;;;;;3.10;1.42;;;;;;;;;;1737485;82;21028;-66
2022/02/18 11:16:04;;;;;;;2.58;1.90;;;;;;;;;;1739818;82;21055;-66
2022/02/18 11:18:31;;;;;;;3.08;1.60;;;;;;;;;;1737569;82;21028;-65
2022/02/18 11:20:57;;;;;;;2.55;1.85;;;;;;;;;;1738477;82;21488;-65
2022/02/18 11:23:23;;;;;;;2.35;1.52;;;;;;;;;;1748291;82;20969;-67
2022/02/18 11:25:49;;;;;;;2.92;1.72;;;;;;;;;;1744244;81;20973;-67
2022/02/18 11:28:15;;;;;;;2.10;1.70;;;;;;;;;;1730249;82;21012;-66
2022/02/18 11:30:43;;;;;;;3.22;2.10;;;;;;;;;;1697904;83;21004;-67
2022/02/18 11:33:12;;;;;;;7.85;2.77;;;;;;;;;;1745547;82;21019;-67
2022/02/18 11:35:56;;;;;;;3.75;2.20;;;;;;;;;;1744539;82;21020;-67
2022/02/18 11:38:38;;;;;;;3.70;2.42;;;;;;;;;;1741938;82;21899;-67
2022/02/18 11:41:12;;;;;;;4.92;2.33;;;;;;;;;;1731479;82;21017;-67
2022/02/18 11:43:45;;;;;;;5.55;2.62;;;;;;;;;;1709411;82;21032;-68
2022/02/18 11:46:14;;;;;;;5.42;2.75;;;;;;;;;;1733447;82;21145;-67
2022/02/18 11:48:45;;;;;;;3.20;2.17;;;;;;;;;;1708345;82;21642;-68
2022/02/18 11:51:12;;;;;;;5.17;2.50;;;;;;;;;;1737378;82;20969;-67
2022/02/18 11:53:40;;;;;;;4.65;2.67;;;;;;;;;;1738315;81;20962;-68
2022/02/18 11:56:07;;;;;;;3.17;2.27;;;;;;;;;;1739413;82;21452;-68
2022/02/18 11:58:49;;;;;;;3.85;2.50;;;;;;;;;;1739090;82;21096;-68
2022/02/18 12:01:15;;;;;;;5.20;2.62;;;;;;;;;;1734983;82;21612;-68
2022/02/18 12:03:45;;;;;;;4.55;2.98;;;;;;;;;;1737301;82;21060;-68
2022/02/18 12:06:12;;;;;;;7.35;2.60;;;;;;;;;;1730981;82;21031;-67
2022/02/18 12:08:41;;;;;;;2.98;2.15;;;;;;;;;;1729798;81;21013;-68
2022/02/18 12:11:09;;;;;;;2.85;1.98;;;;;;;;;;1726184;82;21501;-68
2022/02/18 12:13:44;;;;;;;4.40;2.83;;;;;;;;;;1725957;82;21022;-65
2022/02/18 12:16:10;;;;;;;4.03;2.62;;;;;;;;;;1719877;82;21071;-67
2022/02/18 12:18:36;;;;;;;4.15;2.70;;;;;;;;;;1725612;82;21640;-66
2022/02/18 12:21:06;;;;;;;3.85;2.27;;;;;;;;;;1702557;82;21595;-67
2022/02/18 12:23:39;;;;;;;7.22;4.05;;;;;;;;;;1729876;82;21037;-67
2022/02/18 12:26:24;;;;;;;4.05;2.60;;;;;;;;;;1716034;82;21568;-67
2022/02/18 12:28:49;;;;;;;2.90;2.02;;;;;;;;;;1722024;81;21017;-67
2022/02/18 12:31:17;;;;;;;2.80;2.05;;;;;;;;;;1724676;82;21009;-67
2022/02/18 12:33:44;;;;;;;5.42;2.77;;;;;;;;;;1705575;82;21592;-66
2022/02/18 12:36:11;;;;;;;5.53;2.60;;;;;;;;;;1726125;82;20978;-67
2022/02/18 12:38:42;;;;;;;4.22;2.25;;;;;;;;;;1702421;82;21025;-67
2022/02/18 12:41:11;;;;;;;3.52;2.25;;;;;;;;;;1687373;84;21339;-68
2022/02/18 12:43:38;;;;;;;6.67;3.52;;;;;;;;;;1669609;84;21017;-66
2022/02/18 12:46:05;;;;;;;6.33;3.20;;;;;;;;;;1648979;86;21095;-68
2022/02/18 12:48:43;;;;;;;8.83;3.20;;;;;;;;;;1720704;82;21668;-67
2022/02/18 12:51:13;;;;;;;4.75;2.72;;;;;;;;;;1700083;82;20989;-68
2022/02/18 12:53:42;;;;;;;6.25;3.70;;;;;;;;;;1725191;82;21002;-68
2022/02/18 12:56:12;;;;;;;6.37;3.92;;;;;;;;;;1723242;82;21001;-68
2022/02/18 12:58:39;;;;;;;6.50;3.15;;;;;;;;;;1725068;82;21013;-67
2022/02/18 13:01:11;;;;;;;5.37;2.98;;;;;;;;;;1720387;82;21136;-67
2022/02/18 13:03:37;;;;;;;7.33;3.42;;;;;;;;;;1705885;82;21556;-67
2022/02/18 13:06:03;;;;;;;6.30;3.10;;;;;;;;;;1724376;82;20977;-67
2022/02/18 13:08:30;;;;;;;5.42;3.35;;;;;;;;;;1722401;81;21032;-66
2022/02/18 13:10:56;;;;;;;5.92;3.83;;;;;;;;;;1711136;82;21032;-66
2022/02/18 13:13:23;;;;;;;4.85;3.25;;;;;;;;;;1734472;82;21069;-67
2022/02/18 13:15:50;;;;;;;6.03;3.00;;;;;;;;;;1710251;82;21048;-67
2022/02/18 13:18:18;;;;;;;4.12;2.67;;;;;;;;;;1740582;81;21021;-67
2022/02/18 13:20:45;;;;;;;5.03;3.22;;;;;;;;;;1741249;81;21097;-66
2022/02/18 13:23:13;;;;;;;5.17;2.62;;;;;;;;;;1734396;82;21052;-67
2022/02/18 13:25:41;;;;;;;7.67;3.22;;;;;;;;;;1737209;82;20961;-67
2022/02/18 13:28:08;;;;;;;3.85;2.50;;;;;;;;;;1709025;82;20970;-68
2022/02/18 13:30:36;;;;;;;3.80;2.30;;;;;;;;;;1737793;82;21543;-67
2022/02/18 13:33:03;;;;;;;4.03;2.17;;;;;;;;;;1713037;82;21033;-67
2022/02/18 13:35:31;;;;;;;4.40;2.70;;;;;;;;;;1705938;82;21036;-67
2022/02/18 13:37:58;;;;;;;3.52;2.15;;;;;;;;;;1738798;82;21005;-66
2022/02/18 13:40:25;;;;;;;4.05;2.70;;;;;;;;;;1740743;82;20998;-67
2022/02/18 13:42:53;;;;;;;5.67;2.85;;;;;;;;;;1735255;82;21046;-67
2022/02/18 13:45:19;;;;;;;6.42;3.20;;;;;;;;;;1736364;82;20965;-66
2022/02/18 13:47:45;;;;;;;5.17;2.80;;;;;;;;;;1712357;82;21039;-66
2022/02/18 13:50:12;;;;;;;7.33;3.22;;;;;;;;;;1740226;82;21563;-67
2022/02/18 13:52:38;;;;;;;127.20;64.47;;;;;;;;;;1739691;82;22141;-70
2022/02/18 13:55:05;;;;;;;33.25;21.80;;;;;;;;;;1738479;82;21015;-71
2022/02/18 13:57:34;;;;;;;11.80;7.72;;;;;;;;;;1734441;82;21025;-69
2022/02/18 14:00:00;;;;;;;9.48;5.97;;;;;;;;;;1738290;82;21044;-69
2022/02/18 14:02:26;;;;;;;6.78;3.80;;;;;;;;;;1710202;82;21635;-69
2022/02/18 14:04:53;;;;;;;4.45;2.83;;;;;;;;;;1708613;82;21133;-70
2022/02/18 14:07:19;;;;;;;4.22;2.83;;;;;;;;;;1710662;82;21071;-69
2022/02/18 14:09:49;;;;;;;6.35;3.00;;;;;;;;;;1724206;82;21052;-69
2022/02/18 14:12:16;;;;;;;5.42;3.45;;;;;;;;;;1724472;82;21524;-69
2022/02/18 14:14:57;;;;;;;4.47;3.00;;;;;;;;;;1725207;82;21018;-69
2022/02/18 14:17:25;;;;;;;3.52;2.00;;;;;;;;;;1723629;82;21005;-70
2022/02/18 14:19:52;;;;;;;3.92;2.37;;;;;;;;;;1724722;82;21337;-68
2022/02/18 14:22:27;;;;;;;3.55;2.37;;;;;;;;;;1723428;82;21497;-69
2022/02/18 14:24:53;;;;;;;;;;;;;;;;;;1723963;82;21017;-70
2022/02/18 14:27:21;;;;;;;7.83;4.12;;;;;;;;;;1705069;82;20453;-70
2022/02/18 14:29:52;;;;;;;5.28;3.50;;;;;;;;;;1726265;82;20989;-69
2022/02/18 14:32:22;;;;;;;4.45;2.95;;;;;;;;;;1724871;82;21065;-70
2022/02/18 14:34:57;;;;;;;4.03;2.40;;;;;;;;;;1722223;82;21600;-69
2022/02/18 14:37:24;;;;;;;5.65;2.70;;;;;;;;;;1723143;82;21579;-70
2022/02/18 14:39:50;;;;;;;2.25;1.82;;;;;;;;;;1725465;82;21025;-69
2022/02/18 14:42:17;;;;;;;3.58;2.00;;;;;;;;;;1724499;82;21010;-69
2022/02/18 14:44:57;;;;;;;6.90;2.72;;;;;;;;;;1725836;82;21029;-67
2022/02/18 14:47:30;;;;;;;4.12;1.95;;;;;;;;;;1725764;82;21037;-69
2022/02/18 14:49:57;;;;;;;3.87;2.00;;;;;;;;;;1723335;82;21536;-69